• Join FlightAware (Why Join?)
  • Login
  • US Flag 
06:56PM EDT


 

Airport Tracker/Info


-or-


 

Live Flight TrackerFlight Track Log ✈ HA104 ✈ 27-Apr-2012 ✈ CYVR - CYXT

Flight Track Log - Related Links

Times and Time Zones

All times are in EDT time to prevent confusion due to time zone crossing. See the HA104 flight status page for this flight to view local times or setup timezone preferences in your user account.

Time Position Orientation Groundspeed Altitude Reporting Facility
EDT Latitude Longitude Course Direction KTS MPH feet Rate Location/Type
09:22PM 49.1202 -123.1653 316° Northwest  Level FlightAware Approximate
09:23PM 49.1667 -123.2333 287° West 140 161 2,000  Level Vancouver Center
09:24PM 49.1833 -123.3167 270° West 140 161 3,200 1,140 Climbing Vancouver Center
09:25PM 49.1833 -123.3667 297° West 140 161 4,300 1,200 Climbing Vancouver Center
09:26PM 49.2000 -123.4167 270° West 140 161 5,700 1,260 Climbing Vancouver Center
09:27PM 49.2000 -123.5000 297° West 150 173 6,900 1,200 Climbing Vancouver Center
09:28PM 49.2167 -123.5500 297° West 150 173 8,200 1,260 Climbing Vancouver Center
09:29PM 49.2333 -123.6000 316° Northwest 150 173 9,500 1,260 Climbing Vancouver Center
09:30PM 49.2667 -123.6500 291° West 150 173 10,800 1,200 Climbing Vancouver Center
09:31PM 49.2833 -123.7167 307° West 140 161 11,900 1,020 Climbing Vancouver Center
09:32PM 49.3000 -123.7500 291° West 140 161 12,900 840 Climbing Vancouver Center
09:33PM 49.3167 -123.8167 308° West 150 173 13,600 720 Climbing Vancouver Center
09:34PM 49.3500 -123.8833 291° West 170 196 14,400 780 Climbing Vancouver Center
09:35PM 49.3667 -123.9500 316° Northwest 170 196 15,200 720 Climbing Vancouver Center
09:36PM 49.4000 -124.0000 287° West 170 196 15,900 780 Climbing Vancouver Center
09:37PM 49.4167 -124.0833 316° Northwest 180 207 16,800 780 Climbing Vancouver Center
09:38PM 49.4500 -124.1333 287° West 180 207 17,500 540 Climbing Vancouver Center
09:39PM 49.4667 -124.2167 308° West 180 207 17,900 240 Climbing Vancouver Center
09:40PM 49.5000 -124.2833 287° West 190 219 18,000  Climbing Vancouver Center
09:41PM 49.5167 -124.3667 302° West 210 242 18,000  Level Vancouver Center
09:42PM 49.5500 -124.4500 319° Northwest 230 265 18,000  Level Vancouver Center
09:43PM 49.6000 -124.5167 334° Northwest 240 276 18,000  Level Vancouver Center
09:44PM 49.6667 -124.5667 337° Northwest 240 276 18,000  Level Vancouver Center
09:45PM 49.7167 -124.6000 334° Northwest 230 265 18,000  Level Vancouver Center
09:46PM 49.7833 -124.6500 327° Northwest 240 276 18,000  Level Vancouver Center
09:47PM 49.8333 -124.7000 334° Northwest 230 265 18,000  Level Vancouver Center
09:48PM 49.9000 -124.7500 319° Northwest 240 276 18,000  Level Vancouver Center
09:49PM 49.9500 -124.8167 351° North 230 265 18,000  Level Vancouver Center
09:50PM 50.0167 -124.8333 327° Northwest 240 276 18,000  Level Vancouver Center
09:51PM 50.0667 -124.8833 327° Northwest 240 276 18,000  Level Vancouver Center
09:52PM 50.1333 -124.9500 327° Northwest 240 276 18,000  Level Vancouver Center
09:53PM 50.1833 -125.0000 334° Northwest 240 276 18,000  Level Vancouver Center
09:54PM 50.2500 -125.0500 327° Northwest 240 276 18,000  Level Vancouver Center
09:55PM 50.3000 -125.1000 327° Northwest 240 276 18,000  Level Vancouver Center
09:56PM 50.3667 -125.1667 348° North 240 276 18,000  Level Vancouver Center
09:57PM 50.4167 -125.1833 328° Northwest 240 276 18,000  Level Vancouver Center
09:58PM 50.4833 -125.2500 328° Northwest 240 276 18,000  Level Vancouver Center
09:59PM 50.5333 -125.3000 335° Northwest 240 276 18,000  Level Vancouver Center
10:00PM 50.6000 -125.3500 328° Northwest 240 276 18,000  Level Vancouver Center
10:01PM 50.6500 -125.4000 328° Northwest 240 276 18,000  Level Vancouver Center
10:02PM 50.7167 -125.4667 328° Northwest 240 276 18,000  Level Vancouver Center
10:03PM 50.7667 -125.5167 342° North 240 276 18,000  Level Vancouver Center
10:04PM 50.8333 -125.5500 328° Northwest 240 276 18,000  Level Vancouver Center
10:05PM 50.8833 -125.6000 335° Northwest 240 276 18,000  Level Vancouver Center
10:06PM 50.9500 -125.6500 328° Northwest 240 276 18,000  Level Vancouver Center
10:07PM 51.0167 -125.7167 348° North 240 276 18,000  Level Vancouver Center
10:08PM 51.0667 -125.7333 328° Northwest 240 276 18,000  Level Vancouver Center
10:09PM 51.1333 -125.8000 343° North 240 276 18,000  Level Vancouver Center
10:10PM 51.1667 -125.8167 328° Northwest 240 276 18,000  Level Vancouver Center
10:11PM 51.2333 -125.8833 335° Northwest 240 276 18,000  Level Vancouver Center
10:12PM 51.3000 -125.9333 328° Northwest 230 265 18,000  Level Vancouver Center
10:13PM 51.3500 -125.9833 343° North 240 276 18,000  Level Vancouver Center
10:14PM 51.4167 -126.0167 320° Northwest 230 265 18,000  Level Vancouver Center
10:15PM 51.4667 -126.0833 328° Northwest 230 265 18,000  Level Vancouver Center
10:16PM 51.5167 -126.1333 335° Northwest 230 265 18,000  Level Vancouver Center
10:17PM 51.5833 -126.1833 320° Northwest 230 265 18,000  Level Vancouver Center
10:18PM 51.6333 -126.2500 343° North 240 276 18,000  Level Vancouver Center
10:19PM 51.7000 -126.2833 328° Northwest 230 265 18,000  Level Vancouver Center
10:20PM 51.7500 -126.3333 335° Northwest 240 276 18,000  Level Vancouver Center
10:21PM 51.8167 -126.3833 338° Northwest 230 265 18,000  Level Vancouver Center
10:22PM 51.8667 -126.4167 328° Northwest 240 276 18,000  Level Vancouver Center
10:23PM 51.9333 -126.4833 328° Northwest 240 276 18,000  Level Vancouver Center
10:24PM 51.9833 -126.5333 328° Northwest 240 276 18,000  Level Vancouver Center
10:25PM 52.0500 -126.6000 335° Northwest 240 276 18,000  Level Vancouver Center
10:26PM 52.1167 -126.6500 338° Northwest 240 276 18,000  Level Vancouver Center
10:27PM 52.1667 -126.6833 329° Northwest 240 276 18,000  Level Vancouver Center
10:28PM 52.2167 -126.7333 321° Northwest 240 276 18,000  Level Vancouver Center
10:29PM 52.2667 -126.8000 343° North 240 276 18,000  Level Vancouver Center
10:30PM 52.3333 -126.8333 329° Northwest 240 276 18,000  Level Vancouver Center
10:31PM 52.3833 -126.8833 329° Northwest 240 276 18,000  Level Vancouver Center
10:32PM 52.4500 -126.9500 329° Northwest 240 276 18,000  Level Vancouver Center
10:33PM 52.5000 -127.0000 329° Northwest 240 276 18,000  Level Vancouver Center
10:34PM 52.5667 -127.0667 338° Northwest 240 276 18,000  Level Vancouver Center
10:35PM 52.6167 -127.1000 336° Northwest 230 265 18,000  Level Vancouver Center
10:36PM 52.6833 -127.1500 321° Northwest 240 276 18,000  Level Vancouver Center
10:37PM 52.7333 -127.2167 329° Northwest 230 265 18,000  Level Vancouver Center
10:38PM 52.8000 -127.2833 349° North 240 276 18,000  Level Vancouver Center
10:39PM 52.8500 -127.3000 329° Northwest 240 276 18,000  Level Vancouver Center
10:40PM 52.9167 -127.3667 321° Northwest 240 276 18,000  Level Vancouver Center
10:41PM 52.9667 -127.4333 329° Northwest 240 276 18,000  Level Vancouver Center
10:42PM 53.0167 -127.4833 329° Northwest 240 276 18,000  Level Vancouver Center
10:43PM 53.0833 -127.5500 338° Northwest 230 265 18,000  Level Vancouver Center
10:44PM 53.1333 -127.5833 329° Northwest 240 276 18,000  Level Vancouver Center
10:45PM 53.2000 -127.6500 329° Northwest 230 265 18,000  Level Vancouver Center
10:46PM 53.2500 -127.7000 329° Northwest 230 265 18,000  Level Vancouver Center
10:47PM 53.3167 -127.7667 322° Northwest 240 276 18,000  Level Vancouver Center
10:48PM 53.3667 -127.8333 336° Northwest 230 265 18,000  Level Vancouver Center
10:49PM 53.4333 -127.8833 338° Northwest 240 276 18,000 -180 Level Vancouver Center
10:50PM 53.4833 -127.9167 299° West 230 265 17,700 -600 Descending Vancouver Center
10:51PM 53.5167 -128.0167 338° Northwest 250 288 16,900 -840 Descending Vancouver Center
10:52PM 53.6167 -128.0833 318° Northwest 270 311 16,100 -840 Descending Vancouver Center
10:53PM 53.6500 -128.1333 335° Northwest 270 311 15,300 -840 Descending Vancouver Center
10:54PM 53.7333 -128.2000 322° Northwest 280 322 14,500 -840 Descending Vancouver Center
10:55PM 53.7833 -128.2667 335° Northwest 270 311 13,700 -840 Descending Vancouver Center
10:56PM 53.8667 -128.3333 336° Northwest 280 322 12,900 -840 Descending Vancouver Center
10:57PM 53.9333 -128.3833 322° Northwest 270 311 12,100 -900 Descending Vancouver Center
10:58PM 53.9833 -128.4500 330° Northwest 260 299 11,100 -1,020 Descending Vancouver Center
10:59PM 54.0500 -128.5167 360° North 250 288 10,100 -960 Descending Vancouver Center
11:00PM 54.1000 -128.5167 360° North 240 276 9,200 -900 Descending Vancouver Center